Time;durP1;ratioP1;P1;durP2;ratioP2;P2;SDS_P1;SDS_P2;PMS_P1;PMS_P2;Temp;Humidity;BMP_temperature;BMP_pressure;BME280_temperature;BME280_humidity;BME280_pressure;Samples;Min_cycle;Max_cycle;Signal;HPM_P1;HPM_P2
2022/01/02 00:00:22;;;;;;;8.93;6.13;;;;;;;;;;5107567;28;20094;-48
2022/01/02 00:03:08;;;;;;;8.60;5.88;;;;;;;;;;5105329;28;20023;-47
2022/01/02 00:05:36;;;;;;;11.15;6.95;;;;;;;;;;5107519;28;20114;-45
2022/01/02 00:08:03;;;;;;;13.00;7.88;;;;;;;;;;5107631;28;20118;-46
2022/01/02 00:10:36;;;;;;;11.88;7.18;;;;;;;;;;5107478;28;20487;-46
2022/01/02 00:13:05;;;;;;;9.80;6.30;;;;;;;;;;5089143;28;20032;-45
2022/01/02 00:15:32;;;;;;;9.60;6.55;;;;;;;;;;5087257;28;20024;-46
2022/01/02 00:18:11;;;;;;;9.50;6.00;;;;;;;;;;5087016;28;20034;-47
2022/01/02 00:20:46;;;;;;;9.05;5.82;;;;;;;;;;5089299;28;20064;-47
2022/01/02 00:23:20;;;;;;;9.55;5.88;;;;;;;;;;5106058;28;20027;-45
2022/01/02 00:25:50;;;;;;;9.55;6.07;;;;;;;;;;5106783;28;20036;-46
2022/01/02 00:28:18;;;;;;;10.23;6.70;;;;;;;;;;5088346;28;20032;-45
2022/01/02 00:30:46;;;;;;;7.45;5.25;;;;;;;;;;5086764;28;20507;-48
2022/01/02 00:33:12;;;;;;;8.50;5.40;;;;;;;;;;5086734;28;20077;-46
2022/01/02 00:35:38;;;;;;;9.45;5.55;;;;;;;;;;5086974;28;20039;-47
2022/01/02 00:38:05;;;;;;;9.88;5.90;;;;;;;;;;5086605;28;20499;-45
2022/01/02 00:40:33;;;;;;;9.75;5.63;;;;;;;;;;5086446;28;20028;-48
2022/01/02 00:43:03;;;;;;;8.27;5.60;;;;;;;;;;5085660;28;20506;-46
2022/01/02 00:45:32;;;;;;;13.70;7.05;;;;;;;;;;5085546;28;20234;-47
2022/01/02 00:48:07;;;;;;;8.68;5.70;;;;;;;;;;5086384;28;20028;-46
2022/01/02 00:50:43;;;;;;;7.85;5.22;;;;;;;;;;5086313;28;20278;-46
2022/01/02 00:53:10;;;;;;;8.75;5.38;;;;;;;;;;5085124;28;20096;-48
2022/01/02 00:55:37;;;;;;;7.70;5.28;;;;;;;;;;5084997;28;20135;-45
2022/01/02 00:58:07;;;;;;;7.47;4.53;;;;;;;;;;5085449;28;20016;-46
2022/01/02 01:00:33;;;;;;;7.95;5.18;;;;;;;;;;5086173;28;20043;-46
2022/01/02 01:03:09;;;;;;;8.05;5.30;;;;;;;;;;5086119;28;20031;-47
2022/01/02 01:05:37;;;;;;;7.90;4.95;;;;;;;;;;5101463;28;20036;-47
2022/01/02 01:08:07;;;;;;;8.13;5.35;;;;;;;;;;5106357;28;20506;-46
2022/01/02 01:10:35;;;;;;;7.60;4.90;;;;;;;;;;5105942;28;20027;-50
2022/01/02 01:13:02;;;;;;;7.15;4.82;;;;;;;;;;5090247;28;20059;-46
2022/01/02 01:15:29;;;;;;;9.40;5.47;;;;;;;;;;5084661;28;20570;-45
2022/01/02 01:17:57;;;;;;;8.00;4.50;;;;;;;;;;5086530;28;20107;-47
2022/01/02 01:20:24;;;;;;;6.50;4.05;;;;;;;;;;5103118;28;20546;-48
2022/01/02 01:22:50;;;;;;;4.90;3.58;;;;;;;;;;5106120;28;20027;-46
2022/01/02 01:25:18;;;;;;;5.80;3.90;;;;;;;;;;5090231;28;20104;-45
2022/01/02 01:27:47;;;;;;;7.85;4.28;;;;;;;;;;5084967;28;20034;-47
2022/01/02 01:30:14;;;;;;;6.53;4.30;;;;;;;;;;5087224;28;20115;-46
2022/01/02 01:32:41;;;;;;;5.78;3.80;;;;;;;;;;5105881;28;20157;-46
2022/01/02 01:35:09;;;;;;;5.32;3.40;;;;;;;;;;5104097;28;20034;-46
2022/01/02 01:37:35;;;;;;;6.20;3.58;;;;;;;;;;5105700;28;20368;-47
2022/01/02 01:40:01;;;;;;;6.28;3.65;;;;;;;;;;5105843;28;20020;-45
2022/01/02 01:42:39;;;;;;;5.50;3.65;;;;;;;;;;5093638;28;20024;-46
2022/01/02 01:47:49;;;;;;;5.50;3.92;;;;;;;;;;5085371;28;20028;-52
2022/01/02 01:50:16;;;;;;;5.72;3.60;;;;;;;;;;5085433;28;20028;-46
2022/01/02 01:52:43;;;;;;;6.93;4.03;;;;;;;;;;5085118;28;20621;-46
2022/01/02 01:55:09;;;;;;;7.05;4.05;;;;;;;;;;5084155;28;20032;-46
2022/01/02 01:57:35;;;;;;;7.65;4.07;;;;;;;;;;5084398;28;20118;-46
2022/01/02 02:00:09;;;;;;;5.28;3.55;;;;;;;;;;5085242;28;20016;-45
2022/01/02 02:02:37;;;;;;;6.45;3.65;;;;;;;;;;5084375;28;20027;-46
2022/01/02 02:05:03;;;;;;;5.93;4.05;;;;;;;;;;5083911;28;20384;-46
2022/01/02 02:07:38;;;;;;;6.70;4.40;;;;;;;;;;5084599;28;20044;-47
2022/01/02 02:12:30;;;;;;;6.15;4.07;;;;;;;;;;5084395;28;20035;-46
2022/01/02 02:14:57;;;;;;;7.68;3.97;;;;;;;;;;5084578;28;20028;-47
2022/01/02 02:17:24;;;;;;;6.45;4.15;;;;;;;;;;5085156;28;20430;-45
2022/01/02 02:19:56;;;;;;;6.97;4.30;;;;;;;;;;5085368;28;20039;-47
2022/01/02 02:22:24;;;;;;;5.68;3.97;;;;;;;;;;5085500;28;20403;-45
2022/01/02 02:24:50;;;;;;;5.82;3.42;;;;;;;;;;5100237;28;20114;-45
2022/01/02 02:27:26;;;;;;;5.50;3.75;;;;;;;;;;5089017;28;20115;-47
2022/01/02 02:29:52;;;;;;;4.93;3.13;;;;;;;;;;5085339;28;20622;-46
2022/01/02 02:32:19;;;;;;;5.43;3.15;;;;;;;;;;5084475;28;20137;-46
2022/01/02 02:34:45;;;;;;;3.97;2.88;;;;;;;;;;5066685;28;20525;-45
2022/01/02 02:37:11;;;;;;;5.55;3.45;;;;;;;;;;5094078;28;20024;-47
2022/01/02 02:39:38;;;;;;;5.78;3.22;;;;;;;;;;5094689;28;20028;-46
2022/01/02 02:42:12;;;;;;;6.15;3.22;;;;;;;;;;5084421;28;20016;-47
2022/01/02 02:44:39;;;;;;;6.35;3.75;;;;;;;;;;5084627;28;20031;-45
2022/01/02 02:49:50;;;;;;;5.97;3.60;;;;;;;;;;5084838;28;20062;-48
2022/01/02 02:52:38;;;;;;;4.93;3.38;;;;;;;;;;5084677;28;20036;-46
2022/01/02 02:55:04;;;;;;;5.53;3.55;;;;;;;;;;5088667;28;20568;-46
2022/01/02 02:57:33;;;;;;;5.53;3.40;;;;;;;;;;5091522;28;20024;-46
2022/01/02 02:59:59;;;;;;;4.88;3.33;;;;;;;;;;5084600;28;20017;-46
2022/01/02 03:02:25;;;;;;;4.88;3.28;;;;;;;;;;5096941;28;20403;-47
2022/01/02 03:04:52;;;;;;;5.50;3.35;;;;;;;;;;5104806;28;20061;-46
2022/01/02 03:07:18;;;;;;;5.22;3.13;;;;;;;;;;5093695;28;20043;-45
2022/01/02 03:09:50;;;;;;;5.28;3.47;;;;;;;;;;5084252;28;20032;-46
2022/01/02 03:12:19;;;;;;;4.43;3.28;;;;;;;;;;5084163;28;20400;-47
2022/01/02 03:14:45;;;;;;;7.47;4.20;;;;;;;;;;5086003;28;20020;-47
2022/01/02 03:17:11;;;;;;;6.57;4.13;;;;;;;;;;5094885;28;20569;-45
2022/01/02 03:19:37;;;;;;;6.25;4.10;;;;;;;;;;5108540;28;20058;-45
2022/01/02 03:22:03;;;;;;;6.28;4.05;;;;;;;;;;5108548;28;20505;-45
2022/01/02 03:24:29;;;;;;;5.20;3.47;;;;;;;;;;5107837;28;20187;-45
2022/01/02 03:26:56;;;;;;;5.20;3.45;;;;;;;;;;5103792;28;20035;-46
2022/01/02 03:29:23;;;;;;;4.78;3.58;;;;;;;;;;5108758;28;20066;-46
2022/01/02 03:31:49;;;;;;;4.88;3.47;;;;;;;;;;5108350;28;20031;-46
2022/01/02 03:34:15;;;;;;;5.00;3.10;;;;;;;;;;5108149;28;20023;-46
2022/01/02 03:36:42;;;;;;;4.55;2.97;;;;;;;;;;5102311;28;20024;-46
2022/01/02 03:39:08;;;;;;;3.30;2.47;;;;;;;;;;5103302;28;20153;-45
2022/01/02 03:41:34;;;;;;;3.42;2.47;;;;;;;;;;5104013;28;20040;-46
2022/01/02 03:44:01;;;;;;;6.05;3.75;;;;;;;;;;5087795;28;20113;-46
2022/01/02 03:46:27;;;;;;;6.68;3.45;;;;;;;;;;5088056;28;20031;-47
2022/01/02 03:48:53;;;;;;;8.13;4.28;;;;;;;;;;5108455;28;20028;-46
2022/01/02 03:51:19;;;;;;;8.18;4.13;;;;;;;;;;5107782;28;20032;-45
2022/01/02 03:53:45;;;;;;;5.53;3.90;;;;;;;;;;5107866;28;20040;-45
2022/01/02 03:56:11;;;;;;;5.85;3.65;;;;;;;;;;5104443;28;20081;-46
2022/01/02 03:58:38;;;;;;;4.45;2.92;;;;;;;;;;5087248;28;20126;-45
2022/01/02 04:01:04;;;;;;;4.90;2.88;;;;;;;;;;5088835;28;20020;-46
2022/01/02 04:03:30;;;;;;;5.05;2.97;;;;;;;;;;5088112;28;20657;-47
2022/01/02 04:05:56;;;;;;;4.50;2.78;;;;;;;;;;5104923;28;20545;-46
2022/01/02 04:08:22;;;;;;;6.72;4.15;;;;;;;;;;5092886;28;20110;-46
2022/01/02 04:10:48;;;;;;;7.72;4.90;;;;;;;;;;5094073;28;20024;-47
2022/01/02 04:13:15;;;;;;;5.15;3.70;;;;;;;;;;5094664;28;20082;-46
2022/01/02 04:15:41;;;;;;;5.82;3.72;;;;;;;;;;5088202;28;20024;-47
2022/01/02 04:18:07;;;;;;;5.50;3.47;;;;;;;;;;5086542;28;20111;-46
2022/01/02 04:20:33;;;;;;;4.80;3.22;;;;;;;;;;5088238;28;20028;-45
2022/01/02 04:22:59;;;;;;;6.05;4.53;;;;;;;;;;5088268;28;20035;-47
2022/01/02 04:25:25;;;;;;;5.80;4.25;;;;;;;;;;5088263;28;20028;-46
2022/01/02 04:27:51;;;;;;;6.43;4.13;;;;;;;;;;5083846;28;20036;-47
2022/01/02 04:30:17;;;;;;;6.28;3.75;;;;;;;;;;5093935;28;20499;-48
2022/01/02 04:32:43;;;;;;;5.70;3.70;;;;;;;;;;5086499;28;20031;-48
2022/01/02 04:35:10;;;;;;;3.85;2.90;;;;;;;;;;5085260;28;20119;-46
2022/01/02 04:37:36;;;;;;;5.15;3.05;;;;;;;;;;5107783;28;20032;-46
2022/01/02 04:40:02;;;;;;;4.50;3.05;;;;;;;;;;5108896;28;20024;-48
2022/01/02 04:42:28;;;;;;;3.88;2.97;;;;;;;;;;5096909;28;20122;-46
2022/01/02 04:44:55;;;;;;;4.13;3.05;;;;;;;;;;5087031;28;20563;-46
2022/01/02 04:47:21;;;;;;;4.38;3.10;;;;;;;;;;5087414;28;20032;-49
2022/01/02 04:49:47;;;;;;;3.30;2.60;;;;;;;;;;5088021;28;20020;-46
2022/01/02 04:52:13;;;;;;;3.53;2.28;;;;;;;;;;5087509;28;20042;-45
2022/01/02 04:54:39;;;;;;;4.38;2.97;;;;;;;;;;5086666;28;20016;-48
2022/01/02 04:57:05;;;;;;;4.30;2.97;;;;;;;;;;5087459;28;20048;-46
2022/01/02 04:59:31;;;;;;;4.03;3.15;;;;;;;;;;5088306;28;20031;-46
2022/01/02 05:01:57;;;;;;;3.53;2.50;;;;;;;;;;5085844;28;20039;-46
2022/01/02 05:04:24;;;;;;;3.67;2.50;;;;;;;;;;5084986;28;20028;-47
2022/01/02 05:06:50;;;;;;;3.30;2.58;;;;;;;;;;5084152;28;20803;-46
2022/01/02 05:09:16;;;;;;;4.10;2.95;;;;;;;;;;5085892;28;20297;-46
2022/01/02 05:11:42;;;;;;;5.05;3.53;;;;;;;;;;5085731;28;20464;-46
2022/01/02 05:14:08;;;;;;;4.50;3.40;;;;;;;;;;5085824;28;20121;-46
2022/01/02 05:16:34;;;;;;;5.28;3.75;;;;;;;;;;5084629;28;20415;-47
2022/01/02 05:19:00;;;;;;;6.30;3.80;;;;;;;;;;5084759;28;20020;-46
2022/01/02 05:21:26;;;;;;;5.78;3.60;;;;;;;;;;5086138;28;20056;-46
2022/01/02 05:23:52;;;;;;;4.53;3.53;;;;;;;;;;5085762;28;20020;-45
2022/01/02 05:26:19;;;;;;;5.88;3.65;;;;;;;;;;5095300;28;20419;-45
2022/01/02 05:28:45;;;;;;;5.18;3.78;;;;;;;;;;5085687;28;20101;-47
2022/01/02 05:31:12;;;;;;;5.93;3.63;;;;;;;;;;5085073;28;20062;-47
2022/01/02 05:33:38;;;;;;;5.40;3.97;;;;;;;;;;5084499;28;20514;-49
2022/01/02 05:36:05;;;;;;;6.20;4.18;;;;;;;;;;5083815;28;20016;-50
2022/01/02 05:38:31;;;;;;;6.05;3.70;;;;;;;;;;5084644;28;20193;-47
2022/01/02 05:40:57;;;;;;;4.78;3.65;;;;;;;;;;5078380;28;20024;-46
2022/01/02 05:43:23;;;;;;;4.15;3.25;;;;;;;;;;5084075;28;20024;-49
2022/01/02 05:45:50;;;;;;;4.15;3.10;;;;;;;;;;5086654;28;20039;-49
2022/01/02 05:48:16;;;;;;;5.40;3.50;;;;;;;;;;5088054;28;20024;-48
2022/01/02 05:50:41;;;;;;;4.57;3.10;;;;;;;;;;5089385;28;20475;-45
2022/01/02 05:53:07;;;;;;;5.50;3.70;;;;;;;;;;5087755;28;20020;-46
2022/01/02 05:55:34;;;;;;;5.13;3.40;;;;;;;;;;5086456;28;20415;-47
2022/01/02 05:57:59;;;;;;;4.78;3.50;;;;;;;;;;5087887;28;20028;-47
2022/01/02 06:00:25;;;;;;;3.95;3.20;;;;;;;;;;5083901;28;20626;-45
2022/01/02 06:02:51;;;;;;;3.90;2.88;;;;;;;;;;5086971;28;20012;-47
2022/01/02 06:05:17;;;;;;;4.55;3.10;;;;;;;;;;5084516;28;20032;-47
2022/01/02 06:07:43;;;;;;;3.40;2.47;;;;;;;;;;5085457;28;20028;-46
2022/01/02 06:10:10;;;;;;;2.72;2.42;;;;;;;;;;5085289;28;20036;-48
2022/01/02 06:12:36;;;;;;;4.07;2.70;;;;;;;;;;5085076;28;20062;-47
2022/01/02 06:15:02;;;;;;;2.25;2.05;;;;;;;;;;5098248;28;20170;-45
2022/01/02 06:17:28;;;;;;;2.80;2.15;;;;;;;;;;5107165;28;20012;-45
2022/01/02 06:19:54;;;;;;;3.63;2.40;;;;;;;;;;5106772;28;20096;-46
2022/01/02 06:22:20;;;;;;;3.72;2.80;;;;;;;;;;5087650;28;20339;-48
2022/01/02 06:24:47;;;;;;;3.83;2.70;;;;;;;;;;5084887;28;20028;-46
2022/01/02 06:27:13;;;;;;;2.97;2.40;;;;;;;;;;5070138;28;20025;-45
2022/01/02 06:29:39;;;;;;;2.72;2.20;;;;;;;;;;5074791;28;20100;-45
2022/01/02 06:32:05;;;;;;;3.42;2.40;;;;;;;;;;5083304;28;20258;-46
2022/01/02 06:34:31;;;;;;;2.85;2.40;;;;;;;;;;5084957;28;20063;-46
2022/01/02 06:36:58;;;;;;;3.15;2.50;;;;;;;;;;5085965;28;20085;-45
2022/01/02 06:39:24;;;;;;;2.88;2.53;;;;;;;;;;5084653;28;20024;-48
2022/01/02 06:41:51;;;;;;;3.20;2.60;;;;;;;;;;5068966;28;20017;-45
2022/01/02 06:44:17;;;;;;;5.20;2.88;;;;;;;;;;5079448;28;20024;-46
2022/01/02 06:46:43;;;;;;;3.47;2.38;;;;;;;;;;5085593;28;20499;-46
2022/01/02 06:49:09;;;;;;;2.67;2.05;;;;;;;;;;5087610;28;20039;-45
2022/01/02 06:51:35;;;;;;;2.20;1.90;;;;;;;;;;5088336;28;20024;-46
2022/01/02 06:54:01;;;;;;;3.72;2.60;;;;;;;;;;5087874;28;20028;-45
2022/01/02 06:56:27;;;;;;;3.65;2.75;;;;;;;;;;5088635;28;20163;-46
2022/01/02 06:58:54;;;;;;;3.53;2.38;;;;;;;;;;5089451;28;20475;-46
2022/01/02 07:01:20;;;;;;;2.60;2.03;;;;;;;;;;5088248;28;20431;-46
2022/01/02 07:03:47;;;;;;;2.50;2.05;;;;;;;;;;5090298;28;20041;-46
2022/01/02 07:06:13;;;;;;;2.55;1.98;;;;;;;;;;5096436;28;20520;-46
2022/01/02 07:08:39;;;;;;;2.80;2.15;;;;;;;;;;5090167;28;20120;-47
2022/01/02 07:11:07;;;;;;;2.63;2.15;;;;;;;;;;5086245;28;20024;-45
2022/01/02 07:13:33;;;;;;;2.53;2.22;;;;;;;;;;5089345;28;20028;-50
2022/01/02 07:15:59;;;;;;;2.85;1.88;;;;;;;;;;5089456;28;20438;-49
2022/01/02 07:18:25;;;;;;;2.83;2.20;;;;;;;;;;5088090;28;20511;-47
2022/01/02 07:20:52;;;;;;;2.15;1.95;;;;;;;;;;5089771;28;20059;-51
2022/01/02 07:23:19;;;;;;;1.88;1.70;;;;;;;;;;5089484;28;20028;-46
2022/01/02 07:25:45;;;;;;;2.50;1.83;;;;;;;;;;5089536;28;20103;-45
2022/01/02 07:28:11;;;;;;;2.00;1.80;;;;;;;;;;5089643;28;20111;-47
2022/01/02 07:30:37;;;;;;;2.92;2.10;;;;;;;;;;5093268;28;20030;-45
2022/01/02 07:33:03;;;;;;;2.50;2.00;;;;;;;;;;5109984;28;20027;-46
2022/01/02 07:35:30;;;;;;;3.20;2.20;;;;;;;;;;5100222;28;20024;-46
2022/01/02 07:37:57;;;;;;;3.00;2.20;;;;;;;;;;5088370;28;20028;-47
2022/01/02 07:40:25;;;;;;;3.70;2.50;;;;;;;;;;5092792;28;20482;-47
2022/01/02 07:42:52;;;;;;;2.67;1.92;;;;;;;;;;5099869;28;20028;-45
2022/01/02 07:45:20;;;;;;;2.85;2.30;;;;;;;;;;5084165;28;20039;-46
2022/01/02 07:47:46;;;;;;;2.38;1.90;;;;;;;;;;5076754;28;20046;-49
2022/01/02 07:50:12;;;;;;;2.70;2.05;;;;;;;;;;5094022;28;20028;-46
2022/01/02 07:52:38;;;;;;;1.80;1.45;;;;;;;;;;5091281;28;20059;-47
2022/01/02 07:55:05;;;;;;;2.05;1.55;;;;;;;;;;5093218;28;20031;-46
2022/01/02 07:57:32;;;;;;;2.00;1.50;;;;;;;;;;5088077;28;20043;-48
2022/01/02 07:59:58;;;;;;;2.83;1.88;;;;;;;;;;5090990;28;20506;-46
2022/01/02 08:02:24;;;;;;;2.28;1.77;;;;;;;;;;5099019;28;20024;-47
2022/01/02 08:04:50;;;;;;;1.83;1.50;;;;;;;;;;5095388;28;20825;-46
2022/01/02 08:07:16;;;;;;;2.42;1.90;;;;;;;;;;5097895;28;20075;-46
2022/01/02 08:09:42;;;;;;;1.90;1.70;;;;;;;;;;5097748;28;20063;-47
2022/01/02 08:12:08;;;;;;;2.67;2.08;;;;;;;;;;5088811;28;20783;-46
2022/01/02 08:14:34;;;;;;;1.80;1.60;;;;;;;;;;5088961;28;20052;-45
2022/01/02 08:17:01;;;;;;;1.95;1.65;;;;;;;;;;5108941;28;20055;-46
2022/01/02 08:19:27;;;;;;;1.80;1.58;;;;;;;;;;5089698;28;20119;-46
2022/01/02 08:21:53;;;;;;;2.50;1.85;;;;;;;;;;5093065;28;20023;-45
2022/01/02 08:24:19;;;;;;;2.80;2.10;;;;;;;;;;5091963;28;20069;-46
2022/01/02 08:26:46;;;;;;;2.10;1.90;;;;;;;;;;5093883;28;20024;-46
2022/01/02 08:29:12;;;;;;;2.55;2.00;;;;;;;;;;5089404;28;20028;-46
2022/01/02 08:31:40;;;;;;;2.17;1.77;;;;;;;;;;5088719;28;20028;-47
2022/01/02 08:34:06;;;;;;;1.77;1.27;;;;;;;;;;5084944;28;20487;-47
2022/01/02 08:36:32;;;;;;;2.05;1.55;;;;;;;;;;5105044;28;20169;-45
2022/01/02 08:38:58;;;;;;;3.33;2.40;;;;;;;;;;5103156;28;20024;-45
2022/01/02 08:41:24;;;;;;;4.32;2.95;;;;;;;;;;5091076;28;20034;-46
2022/01/02 08:43:50;;;;;;;4.07;2.78;;;;;;;;;;5102285;28;20450;-47
2022/01/02 08:46:17;;;;;;;5.22;3.20;;;;;;;;;;5083646;28;20036;-46
2022/01/02 08:48:43;;;;;;;4.10;3.00;;;;;;;;;;5097300;28;20031;-46
2022/01/02 08:51:11;;;;;;;3.80;2.50;;;;;;;;;;5087039;28;20043;-45
2022/01/02 08:53:38;;;;;;;2.90;2.38;;;;;;;;;;5093225;28;20023;-47
2022/01/02 08:56:04;;;;;;;3.53;2.20;;;;;;;;;;5087948;28;20020;-45
2022/01/02 08:58:30;;;;;;;3.63;2.35;;;;;;;;;;5086611;28;20024;-46
2022/01/02 09:00:59;;;;;;;3.47;2.20;;;;;;;;;;5095105;28;20020;-47
2022/01/02 09:03:25;;;;;;;3.00;2.03;;;;;;;;;;5108452;28;20027;-46
2022/01/02 09:05:51;;;;;;;2.13;1.60;;;;;;;;;;5093207;28;20036;-50
2022/01/02 09:08:18;;;;;;;2.00;1.48;;;;;;;;;;5087157;28;20525;-49
2022/01/02 09:10:45;;;;;;;2.33;1.90;;;;;;;;;;5087347;28;20483;-47
2022/01/02 09:13:11;;;;;;;2.88;2.17;;;;;;;;;;5067739;28;20407;-50
2022/01/02 09:15:37;;;;;;;3.20;2.13;;;;;;;;;;5086256;28;20580;-46
2022/01/02 09:18:05;;;;;;;2.47;1.90;;;;;;;;;;5087191;28;20040;-47
2022/01/02 09:20:31;;;;;;;1.88;1.60;;;;;;;;;;5087035;28;20024;-47
2022/01/02 09:22:59;;;;;;;2.08;1.90;;;;;;;;;;5089316;28;20490;-50
2022/01/02 09:25:25;;;;;;;2.08;1.48;;;;;;;;;;5091119;28;20036;-49
2022/01/02 09:27:52;;;;;;;4.18;3.05;;;;;;;;;;5101392;28;20027;-50
2022/01/02 09:30:18;;;;;;;4.47;3.53;;;;;;;;;;5096433;28;20028;-47
2022/01/02 09:32:44;;;;;;;3.72;2.63;;;;;;;;;;5084238;28;20031;-49
2022/01/02 09:35:12;;;;;;;3.33;2.67;;;;;;;;;;5097202;28;20023;-50
2022/01/02 09:37:38;;;;;;;3.40;2.63;;;;;;;;;;5104509;28;20035;-49
2022/01/02 09:40:05;;;;;;;3.33;2.60;;;;;;;;;;5101912;28;20107;-47
2022/01/02 09:42:32;;;;;;;2.75;2.17;;;;;;;;;;5092982;28;20036;-51
2022/01/02 09:44:59;;;;;;;2.45;2.25;;;;;;;;;;5107482;28;20020;-49
2022/01/02 09:47:25;;;;;;;2.28;2.00;;;;;;;;;;5082723;28;20028;-46
2022/01/02 09:49:51;;;;;;;5.00;3.10;;;;;;;;;;5084925;28;20106;-46
2022/01/02 09:52:18;;;;;;;2.15;1.75;;;;;;;;;;5086518;28;20388;-48
2022/01/02 09:54:46;;;;;;;2.53;2.05;;;;;;;;;;5087296;28;20414;-45
2022/01/02 09:57:13;;;;;;;3.22;2.63;;;;;;;;;;5086041;28;20074;-50
2022/01/02 09:59:40;;;;;;;2.83;2.50;;;;;;;;;;5086345;28;20054;-50
2022/01/02 10:02:08;;;;;;;2.95;2.33;;;;;;;;;;5086112;28;20074;-47
2022/01/02 10:04:38;;;;;;;3.30;2.20;;;;;;;;;;5086011;28;20050;-51
2022/01/02 10:07:05;;;;;;;2.83;2.33;;;;;;;;;;5086246;28;20032;-47
2022/01/02 10:09:32;;;;;;;3.65;2.55;;;;;;;;;;5085307;28;20111;-50
2022/01/02 10:12:30;;;;;;;2.60;2.22;;;;;;;;;;5085399;28;20169;-50
2022/01/02 10:15:15;;;;;;;2.42;2.00;;;;;;;;;;5033302;28;20048;-51
2022/01/02 10:17:57;;;;;;;3.25;2.53;;;;;;;;;;5085691;28;20034;-49
2022/01/02 10:20:37;;;;;;;2.00;1.63;;;;;;;;;;5085942;28;20598;-51
2022/01/02 10:23:03;;;;;;;4.18;1.83;;;;;;;;;;5085976;28;20553;-51
2022/01/02 10:25:41;;;;;;;1.42;1.23;;;;;;;;;;5067136;28;20036;-50
2022/01/02 10:28:19;;;;;;;1.55;1.30;;;;;;;;;;5067956;28;20388;-47
2022/01/02 10:30:46;;;;;;;1.63;1.23;;;;;;;;;;5066524;28;20106;-50
2022/01/02 10:33:12;;;;;;;2.25;1.73;;;;;;;;;;5065547;28;20123;-49
2022/01/02 10:35:40;;;;;;;1.40;1.30;;;;;;;;;;5082932;28;20316;-51
2022/01/02 10:38:06;;;;;;;2.10;1.63;;;;;;;;;;5085953;28;20035;-48
2022/01/02 10:40:32;;;;;;;2.08;1.48;;;;;;;;;;5082226;28;20388;-50
2022/01/02 10:43:00;;;;;;;2.33;1.85;;;;;;;;;;5085821;28;20495;-51
2022/01/02 10:45:38;;;;;;;2.30;1.70;;;;;;;;;;5084301;28;20039;-47
2022/01/02 10:48:06;;;;;;;2.20;1.70;;;;;;;;;;5086616;28;20051;-50
2022/01/02 10:50:33;;;;;;;2.22;1.90;;;;;;;;;;5083393;28;20035;-48
2022/01/02 10:53:11;;;;;;;2.00;1.80;;;;;;;;;;5085789;28;20411;-47
2022/01/02 10:55:39;;;;;;;1.48;1.35;;;;;;;;;;5083360;28;20553;-51
2022/01/02 10:58:07;;;;;;;1.75;1.65;;;;;;;;;;5085530;28;20028;-50
2022/01/02 11:00:34;;;;;;;2.60;1.80;;;;;;;;;;5090622;28;20023;-50
2022/01/02 11:03:00;;;;;;;1.98;1.50;;;;;;;;;;5084843;28;20752;-50
2022/01/02 11:05:29;;;;;;;1.55;1.40;;;;;;;;;;5083643;28;20488;-49
2022/01/02 11:07:59;;;;;;;1.40;1.27;;;;;;;;;;5087796;28;20032;-51
2022/01/02 11:10:27;;;;;;;1.65;1.55;;;;;;;;;;5081699;28;20032;-50
2022/01/02 11:12:54;;;;;;;3.28;2.35;;;;;;;;;;5086887;28;20119;-50
2022/01/02 11:15:21;;;;;;;2.30;1.98;;;;;;;;;;5084826;28;20028;-50
2022/01/02 11:17:47;;;;;;;3.42;2.75;;;;;;;;;;5098127;28;20059;-51
2022/01/02 11:20:15;;;;;;;2.92;2.30;;;;;;;;;;5089051;28;20016;-50
2022/01/02 11:22:52;;;;;;;3.70;2.30;;;;;;;;;;5085872;28;20043;-47
2022/01/02 11:25:18;;;;;;;2.65;2.30;;;;;;;;;;5069212;28;20685;-50
2022/01/02 11:27:47;;;;;;;4.88;3.63;;;;;;;;;;5086344;28;20036;-51
2022/01/02 11:30:34;;;;;;;5.05;3.30;;;;;;;;;;5103546;28;20027;-49
2022/01/02 11:33:03;;;;;;;4.78;3.28;;;;;;;;;;5105243;28;20398;-48
2022/01/02 11:35:33;;;;;;;4.68;3.13;;;;;;;;;;5106095;28;20032;-49
2022/01/02 11:38:03;;;;;;;4.13;3.00;;;;;;;;;;5079153;28;20185;-50
2022/01/02 11:40:49;;;;;;;3.78;2.90;;;;;;;;;;5094462;28;20440;-51
2022/01/02 11:43:34;;;;;;;3.42;2.67;;;;;;;;;;5071678;28;20059;-49
2022/01/02 11:46:20;;;;;;;5.32;3.25;;;;;;;;;;5069940;28;20085;-50
2022/01/02 11:49:04;;;;;;;2.88;2.58;;;;;;;;;;5072145;28;20020;-49
2022/01/02 11:51:30;;;;;;;;;;;;;;;;;;5071615;28;20038;-47
2022/01/02 11:53:56;;;;;;;3.53;2.40;;;;;;;;;;5069672;28;20360;-51
2022/01/02 11:56:40;;;;;;;2.17;1.70;;;;;;;;;;5086843;28;20525;-49
2022/01/02 11:59:06;;;;;;;2.60;2.20;;;;;;;;;;5089747;28;20020;-50
2022/01/02 12:01:47;;;;;;;4.38;2.90;;;;;;;;;;5086628;28;20031;-50
2022/01/02 12:04:13;;;;;;;3.72;3.28;;;;;;;;;;5088699;28;20096;-49
2022/01/02 12:06:42;;;;;;;3.38;2.90;;;;;;;;;;5090115;28;20036;-47
2022/01/02 12:09:28;;;;;;;5.22;3.60;;;;;;;;;;5090767;28;20899;-48
2022/01/02 12:12:01;;;;;;;3.75;3.28;;;;;;;;;;5086687;28;20028;-49
2022/01/02 12:14:27;;;;;;;4.63;3.20;;;;;;;;;;5083608;28;20024;-51
2022/01/02 12:16:57;;;;;;;3.83;3.22;;;;;;;;;;5098196;28;20114;-52
2022/01/02 12:19:24;;;;;;;3.22;2.92;;;;;;;;;;5097819;28;20098;-48
2022/01/02 12:22:10;;;;;;;5.78;4.45;;;;;;;;;;5089017;28;20021;-50
2022/01/02 12:24:36;;;;;;;9.88;7.18;;;;;;;;;;5087170;28;20062;-51
2022/01/02 12:27:13;;;;;;;7.88;5.78;;;;;;;;;;5093658;28;20102;-51
2022/01/02 12:29:40;;;;;;;7.15;5.32;;;;;;;;;;5088841;28;20047;-51
2022/01/02 12:32:07;;;;;;;6.32;4.53;;;;;;;;;;5091145;28;20554;-50
2022/01/02 12:34:34;;;;;;;6.70;4.20;;;;;;;;;;5086632;28;20221;-51
2022/01/02 12:37:00;;;;;;;5.70;4.75;;;;;;;;;;5088923;28;20024;-50
2022/01/02 12:39:26;;;;;;;6.68;5.20;;;;;;;;;;5088455;28;20107;-50
2022/01/02 12:41:52;;;;;;;6.65;5.40;;;;;;;;;;5087972;28;20027;-50
2022/01/02 12:44:26;;;;;;;5.35;4.20;;;;;;;;;;5091166;28;20027;-50
2022/01/02 12:46:55;;;;;;;7.05;5.30;;;;;;;;;;5108727;28;20028;-49
2022/01/02 12:49:21;;;;;;;6.50;5.45;;;;;;;;;;5088263;28;20032;-50
2022/01/02 12:51:48;;;;;;;9.07;6.57;;;;;;;;;;5088743;28;20032;-48
2022/01/02 12:54:15;;;;;;;5.90;5.15;;;;;;;;;;5088113;28;20039;-50
2022/01/02 12:56:42;;;;;;;6.03;5.03;;;;;;;;;;5093698;28;20043;-49
2022/01/02 12:59:19;;;;;;;5.13;4.15;;;;;;;;;;5088922;28;20028;-51
2022/01/02 13:01:56;;;;;;;4.78;3.72;;;;;;;;;;5089046;28;20443;-47
2022/01/02 13:04:23;;;;;;;6.15;4.53;;;;;;;;;;5087795;28;20036;-51
2022/01/02 13:06:50;;;;;;;5.30;4.45;;;;;;;;;;5092630;28;20055;-51
2022/01/02 13:09:23;;;;;;;5.10;4.18;;;;;;;;;;5102545;28;20044;-51
2022/01/02 13:11:50;;;;;;;4.68;4.05;;;;;;;;;;5093804;28;20089;-49
2022/01/02 13:14:55;;;;;;;4.75;3.35;;;;;;;;;;5088089;28;20031;-51
2022/01/02 13:17:21;;;;;;;3.60;2.95;;;;;;;;;;4986219;28;20042;-51
2022/01/02 13:19:49;;;;;;;3.20;2.72;;;;;;;;;;4986820;28;20026;-49
2022/01/02 13:22:20;;;;;;;5.00;3.78;;;;;;;;;;5026799;28;20047;-50
2022/01/02 13:24:46;;;;;;;4.45;4.03;;;;;;;;;;5075517;28;20020;-47
2022/01/02 13:27:12;;;;;;;5.07;4.05;;;;;;;;;;5087124;28;20028;-51
2022/01/02 13:29:38;;;;;;;6.63;5.10;;;;;;;;;;5087960;28;20047;-47
2022/01/02 13:32:15;;;;;;;5.90;4.88;;;;;;;;;;5087907;28;20082;-51
2022/01/02 13:34:42;;;;;;;4.90;4.03;;;;;;;;;;5090794;28;20024;-51
2022/01/02 13:37:09;;;;;;;5.78;4.40;;;;;;;;;;5093392;28;20054;-49
2022/01/02 13:39:38;;;;;;;4.82;3.50;;;;;;;;;;5104633;28;20518;-51
2022/01/02 13:42:04;;;;;;;4.20;3.30;;;;;;;;;;5089579;28;20384;-50
2022/01/02 13:44:40;;;;;;;5.57;4.45;;;;;;;;;;5087615;28;20152;-51
2022/01/02 13:47:07;;;;;;;4.30;3.40;;;;;;;;;;5087624;28;20024;-48
2022/01/02 13:49:40;;;;;;;4.43;3.50;;;;;;;;;;5086696;28;20528;-48
2022/01/02 13:52:06;;;;;;;5.25;3.92;;;;;;;;;;5079083;28;20586;-49
2022/01/02 13:54:32;;;;;;;5.60;4.18;;;;;;;;;;5094288;28;20028;-50
2022/01/02 13:56:59;;;;;;;6.22;4.63;;;;;;;;;;5090592;28;20426;-51
2022/01/02 13:59:26;;;;;;;6.65;4.90;;;;;;;;;;5089314;28;20019;-51
2022/01/02 14:01:52;;;;;;;7.38;5.80;;;;;;;;;;5086417;28;20028;-49
2022/01/02 14:04:20;;;;;;;6.15;4.60;;;;;;;;;;5086022;28;20036;-51
2022/01/02 14:06:46;;;;;;;6.13;4.57;;;;;;;;;;5092383;28;20502;-47
2022/01/02 14:09:14;;;;;;;6.20;4.38;;;;;;;;;;5089151;28;20031;-50
2022/01/02 14:11:41;;;;;;;7.47;5.45;;;;;;;;;;5089858;28;20076;-51
2022/01/02 14:14:47;;;;;;;7.03;4.93;;;;;;;;;;5083943;28;20116;-51
2022/01/02 14:19:48;;;;;;;8.52;5.25;;;;;;;;;;5082730;28;20064;-50
2022/01/02 14:22:15;;;;;;;6.28;4.82;;;;;;;;;;5087718;28;20032;-50
2022/01/02 14:24:42;;;;;;;6.45;4.55;;;;;;;;;;5087814;28;20488;-51
2022/01/02 14:27:08;;;;;;;7.35;4.40;;;;;;;;;;5093873;28;20032;-50
2022/01/02 14:29:34;;;;;;;6.05;3.97;;;;;;;;;;5086409;28;20465;-50
2022/01/02 14:32:01;;;;;;;6.18;3.67;;;;;;;;;;5087019;28;20027;-50
2022/01/02 14:34:27;;;;;;;4.55;3.30;;;;;;;;;;5087043;28;20383;-48
2022/01/02 14:36:53;;;;;;;4.28;3.00;;;;;;;;;;5087173;28;20064;-50
2022/01/02 14:39:19;;;;;;;3.95;3.03;;;;;;;;;;5085475;28;20840;-49
2022/01/02 14:41:45;;;;;;;4.82;3.30;;;;;;;;;;5084028;28;20121;-48
2022/01/02 14:44:13;;;;;;;3.83;2.72;;;;;;;;;;5093783;28;20020;-51
2022/01/02 14:46:40;;;;;;;4.85;3.30;;;;;;;;;;5091222;28;20777;-51
2022/01/02 14:49:06;;;;;;;4.45;3.35;;;;;;;;;;5084215;28;20028;-50
2022/01/02 14:51:33;;;;;;;4.35;3.00;;;;;;;;;;5090339;28;20036;-51
2022/01/02 14:53:59;;;;;;;3.75;2.65;;;;;;;;;;5082304;28;20479;-52
2022/01/02 14:56:25;;;;;;;3.03;2.35;;;;;;;;;;5066077;28;20047;-47
2022/01/02 14:58:51;;;;;;;2.70;2.30;;;;;;;;;;5086507;28;20086;-51